Camborne, United Kingdom
Current Conditions -  °F | °C
As of 8:50 PM on Thursday 23 Oct 2014 (Local Time) from EGDR Reporting Station
Drizzle Drizzle  
Wind Chill: 57°   Ceiling: 600
Heat Index: 57°   Visibility: 2.5mi
Dew Point: 57°   Wind: 13mph
Humidity: 100%   Direction: 230°SW
Pressure: 30.06"   Gusts: NA
Location:  50.21°N, 5.3°W
Report Text: EGDR 231950Z 23011KT 4000 -DZ FEW001 SCT002 BKN006 14/14 Q1018 AMB
Loading
Personal Weather Stations






























Interactive Weather Map
Tropical Storm Tracking
New forecast layout! Learn more

10-Day Weather Forecast

Advertisements
Track Severe Weather on mobile